LDPL/PUY METAR and TAF weather

Enter ICAO airport designator
Station Type Date Time Source
LDPL METAR 2019/02/16 03:00 UTC NOAA

LDPL 160300Z VRB02KT CAVOK 01/M01 Q1031 NOSIG


Station Type Date Time Source
LDPL Decoded METAR 2019/02/16 03:00 UTC NOAA

Pula Aerodrome, Croatia (LDPL) 45-54N 013-55E 63M
Feb 15, 2019 - 10:00 PM EST / 2019.02.16 0300 UTC
Wind: Variable at 2 MPH (2 KT):0
Visibility: greater than 7 mile(s):0
Temperature: 33 F (1 C)
Dew Point: 30 F (-1 C)
Relative Humidity: 86%
Pressure (altimeter): 30.45 in. Hg (1031 hPa)
ob: LDPL 160300Z VRB02KT CAVOK 01/M01 Q1031 NOSIG
cycle: 3

Station Type Date Time Source
LDPL TAF 2019/02/15 18:31 UTC NOAA

TAF LDPL 151725Z 1518/1618 09006KT CAVOK TX14/1613Z TN01/1605Z
BECMG 1518/1520 VRB02KT
TEMPO 1609/1618 29007KT


Example: see airport list